Time;durP1;ratioP1;P1;durP2;ratioP2;P2;SDS_P1;SDS_P2;PMS_P1;PMS_P2;Temp;Humidity;BMP_temperature;BMP_pressure;BME280_temperature;BME280_humidity;BME280_pressure;Samples;Min_cycle;Max_cycle;Signal;HPM_P1;HPM_P2
2023/02/05 00:01:11;;;;;;;30.27;15.70;;;9.60;1.00;;;;;;4968897;28;20219;-88
2023/02/05 00:03:38;;;;;;;35.67;15.57;;;9.60;99.90;;;;;;4969873;28;20463;-90
2023/02/05 00:06:06;;;;;;;41.13;18.87;;;9.60;99.90;;;;;;4969332;28;20196;-89
2023/02/05 00:08:33;;;;;;;37.90;18.00;;;9.60;99.90;;;;;;4970730;28;20439;-89
2023/02/05 00:11:06;;;;;;;39.00;19.30;;;9.60;99.90;;;;;;4969137;28;20447;-91
2023/02/05 00:13:31;;;;;;;35.27;16.90;;;9.50;99.90;;;;;;4966843;28;20498;-89
2023/02/05 00:15:57;;;;;;;35.43;16.73;;;9.50;99.90;;;;;;4969049;28;20999;-90
2023/02/05 00:18:22;;;;;;;37.60;16.90;;;9.50;99.90;;;;;;4970612;28;20564;-90
2023/02/05 00:20:48;;;;;;;30.00;15.63;;;9.60;1.00;;;;;;4968102;28;20199;-89
2023/02/05 00:23:13;;;;;;;39.40;17.47;;;9.50;1.00;;;;;;4976236;28;20188;-91
2023/02/05 00:25:39;;;;;;;31.80;16.40;;;9.50;1.00;;;;;;4984200;28;20307;-88
2023/02/05 00:28:04;;;;;;;31.87;15.50;;;9.50;1.00;;;;;;4975870;28;20173;-89
2023/02/05 00:30:30;;;;;;;37.63;15.63;;;9.50;1.00;;;;;;4963961;28;20192;-90
2023/02/05 00:32:56;;;;;;;31.50;17.57;;;9.50;1.00;;;;;;4973083;28;20207;-90
2023/02/05 00:35:21;;;;;;;35.43;16.10;;;9.50;1.00;;;;;;4969199;28;20292;-90
2023/02/05 00:37:47;;;;;;;25.73;15.57;;;9.50;1.00;;;;;;4968931;28;20192;-91
2023/02/05 00:40:12;;;;;;;34.83;16.40;;;9.50;1.00;;;;;;4969029;28;20601;-90
2023/02/05 00:42:43;;;;;;;29.87;16.20;;;9.50;1.00;;;;;;4968834;28;20180;-89
2023/02/05 00:45:08;;;;;;;33.80;18.20;;;9.50;1.00;;;;;;4969295;28;20262;-89
2023/02/05 00:47:34;;;;;;;38.73;18.67;;;9.40;1.00;;;;;;4966851;28;20539;-90
2023/02/05 00:49:59;;;;;;;36.60;17.57;;;9.30;1.00;;;;;;4978876;28;20192;-90
2023/02/05 00:52:25;;;;;;;38.40;17.77;;;9.30;20.10;;;;;;4969321;28;20321;-89
2023/02/05 00:54:52;;;;;;;41.03;17.30;;;9.20;99.90;;;;;;4971653;28;20203;-90
2023/02/05 00:57:17;;;;;;;37.60;18.57;;;9.10;99.90;;;;;;4972849;28;20204;-90
2023/02/05 00:59:43;;;;;;;36.50;18.23;;;9.00;99.90;;;;;;4974093;28;20439;-90
2023/02/05 01:02:11;;;;;;;42.17;18.83;;;9.00;99.90;;;;;;4971573;28;20192;-89
2023/02/05 01:04:36;;;;;;;33.50;18.00;;;9.00;99.90;;;;;;4985595;28;20891;-89
2023/02/05 01:07:02;;;;;;;33.23;18.00;;;9.00;99.90;;;;;;4988193;28;20538;-89
2023/02/05 01:09:27;;;;;;;37.67;18.03;;;9.00;99.90;;;;;;4976537;28;20243;-90
2023/02/05 01:11:58;;;;;;;37.03;19.07;;;9.10;99.90;;;;;;4974851;28;20192;-90
2023/02/05 01:14:24;;;;;;;38.40;18.10;;;9.00;99.90;;;;;;4974997;28;20215;-89
2023/02/05 01:16:50;;;;;;;40.97;18.43;;;9.00;99.90;;;;;;4974187;28;20483;-89
2023/02/05 01:19:15;;;;;;;41.57;18.63;;;9.00;99.90;;;;;;4975469;28;20180;-88
2023/02/05 01:21:41;;;;;;;37.57;19.47;;;9.00;99.90;;;;;;4972999;28;20263;-88
2023/02/05 01:24:07;;;;;;;39.70;20.53;;;9.00;99.90;;;;;;4974369;28;20215;-88
2023/02/05 01:26:32;;;;;;;43.13;19.53;;;9.00;99.90;;;;;;4975765;28;20553;-89
2023/02/05 01:28:58;;;;;;;46.50;22.30;;;8.90;99.90;;;;;;4975277;28;20184;-89
2023/02/05 01:31:32;;;;;;;42.20;22.43;;;8.90;99.90;;;;;;4972306;28;20248;-88
2023/02/05 01:33:58;;;;;;;47.80;24.30;;;8.90;99.90;;;;;;4974362;28;20246;-87
2023/02/05 01:36:24;;;;;;;64.35;25.33;;;8.90;99.90;;;;;;4968167;28;20456;-88
2023/02/05 01:38:52;;;;;;;97.20;25.93;;;8.90;99.90;;;;;;4967877;28;20280;-88
2023/02/05 01:41:23;;;;;;;61.70;24.67;;;8.90;99.90;;;;;;4990857;28;20189;-89
2023/02/05 01:44:09;;;;;;;59.53;25.13;;;8.90;99.90;;;;;;4973139;28;20478;-87
2023/02/05 01:46:41;;;;;;;75.30;24.65;;;8.90;99.90;;;;;;4957129;28;20487;-89
2023/02/05 01:49:22;;;;;;;51.03;22.33;;;8.90;99.90;;;;;;4995851;28;20177;-89
2023/02/05 01:51:49;;;;;;;68.80;23.40;;;8.90;99.90;;;;;;4970909;28;20446;-89
2023/02/05 01:54:21;;;;;;;65.07;25.98;;;9.00;99.90;;;;;;4976812;28;20461;-89
2023/02/05 01:56:59;;;;;;;67.27;24.40;;;9.00;99.90;;;;;;4972042;28;20278;-89
2023/02/05 01:59:28;;;;;;;76.57;22.43;;;9.00;99.90;;;;;;4972155;28;20538;-88
2023/02/05 02:02:00;;;;;;;57.97;22.83;;;8.90;99.90;;;;;;4972809;28;20963;-89
2023/02/05 02:04:39;;;;;;;59.17;24.03;;;8.90;99.90;;;;;;4972148;28;20463;-91
2023/02/05 02:07:07;;;;;;;47.90;23.40;;;8.90;99.90;;;;;;4969283;28;20449;-89
2023/02/05 02:09:40;;;;;;;52.60;23.20;;;8.90;99.90;;;;;;4964742;28;20829;-89
2023/02/05 02:12:12;;;;;;;44.00;23.17;;;8.90;99.90;;;;;;4971114;28;20559;-89
2023/02/05 02:14:41;;;;;;;63.63;25.87;;;8.90;99.90;;;;;;4972161;28;20471;-89
2023/02/05 02:17:08;;;;;;;49.43;23.07;;;8.90;99.90;;;;;;4969700;28;20891;-88
2023/02/05 02:19:55;;;;;;;46.13;24.83;;;8.90;1.00;;;;;;4970944;28;20798;-89
2023/02/05 02:22:48;;;;;;;49.57;22.40;;;8.90;1.00;;;;;;4970085;28;20804;-89
2023/02/05 02:25:45;;;;;;;45.97;23.17;;;8.90;1.00;;;;;;4967121;28;20826;-90
2023/02/05 02:28:47;;;;;;;51.30;24.40;;;8.90;1.00;;;;;;4964716;28;20439;-90
2023/02/05 02:31:33;;;;;;;48.93;26.07;;;8.90;1.00;;;;;;4897676;28;20453;-89
2023/02/05 02:34:19;;;;;;;49.43;25.60;;;8.90;1.00;;;;;;4965335;28;20538;-89
2023/02/05 02:36:57;;;;;;;50.67;26.07;;;8.90;1.00;;;;;;4972336;28;20836;-88
2023/02/05 02:39:29;;;;;;;48.50;23.27;;;8.90;1.00;;;;;;4970548;28;20942;-89
2023/02/05 02:42:08;;;;;;;47.00;24.03;;;8.90;1.00;;;;;;4970263;28;20462;-89
2023/02/05 02:44:45;;;;;;;58.00;26.07;;;8.90;1.00;;;;;;4970614;28;20470;-89
2023/02/05 02:47:23;;;;;;;60.53;26.00;;;8.90;1.00;;;;;;4971006;28;20526;-88
2023/02/05 02:50:10;;;;;;;53.57;24.90;;;8.90;1.00;;;;;;4969419;28;21038;-88
2023/02/05 02:52:41;;;;;;;57.25;27.55;;;8.80;1.00;;;;;;4993207;28;20985;-89
2023/02/05 02:55:11;;;;;;;49.00;28.23;;;8.90;1.00;;;;;;4970518;28;20208;-88
2023/02/05 02:57:39;;;;;;;58.03;28.50;;;8.90;1.00;;;;;;4972440;28;20850;-89
2023/02/05 03:00:12;;;;;;;60.27;30.97;;;8.90;1.00;;;;;;4969874;28;20192;-89
2023/02/05 03:02:48;;;;;;;59.80;28.63;;;8.90;1.00;;;;;;4968767;28;20439;-88
2023/02/05 03:05:20;;;;;;;57.90;27.70;;;8.90;1.00;;;;;;4971471;28;20455;-89
2023/02/05 03:07:55;;;;;;;61.13;29.23;;;8.90;1.00;;;;;;4970036;28;20491;-88
2023/02/05 03:10:32;;;;;;;55.30;29.27;;;9.00;1.00;;;;;;4969301;28;20951;-89
2023/02/05 03:12:58;;;;;;;61.00;29.27;;;9.00;1.00;;;;;;4967485;28;20962;-88
2023/02/05 03:15:23;;;;;;;61.90;29.27;;;9.00;1.00;;;;;;4967392;28;20462;-89
2023/02/05 03:17:51;;;;;;;55.90;29.20;;;9.00;1.00;;;;;;4986487;28;20187;-90
2023/02/05 03:20:30;;;;;;;61.40;29.93;;;9.00;1.00;;;;;;4970417;28;20531;-88
2023/02/05 03:22:56;;;;;;;61.07;27.97;;;9.10;1.00;;;;;;4980404;28;20481;-89
2023/02/05 03:25:24;;;;;;;53.73;29.73;;;9.10;1.00;;;;;;4978664;28;21198;-92
2023/02/05 03:27:52;;;;;;;55.65;28.73;;;9.10;1.00;;;;;;4967418;28;20181;-92
2023/02/05 03:30:29;;;;;;;61.40;29.23;;;9.10;1.00;;;;;;4967330;28;20652;-88
2023/02/05 03:32:54;;;;;;;62.57;31.90;;;9.10;1.00;;;;;;4962140;28;20442;-88
2023/02/05 03:35:33;;;;;;;61.10;31.50;;;9.10;1.00;;;;;;4970557;28;20543;-90
2023/02/05 03:38:19;;;;;;;62.15;29.23;;;9.10;1.00;;;;;;4966999;28;20180;-89
2023/02/05 03:40:58;;;;;;;62.90;32.50;;;9.10;1.00;;;;;;4976662;28;20199;-88
2023/02/05 03:43:50;;;;;;;69.90;34.37;;;9.10;1.00;;;;;;4965499;28;20955;-89
2023/02/05 03:46:32;;;;;;;66.17;31.83;;;9.10;1.00;;;;;;4984620;28;20498;-89
2023/02/05 03:49:22;;;;;;;77.50;33.70;;;9.10;1.00;;;;;;4983314;28;20451;-90
2023/02/05 03:52:11;;;;;;;78.57;34.50;;;9.10;1.00;;;;;;4969157;28;20447;-89
2023/02/05 03:54:54;;;;;;;84.90;36.43;;;9.10;1.00;;;;;;4967601;28;20569;-88
2023/02/05 03:57:25;;;;;;;92.47;34.72;;;9.10;1.00;;;;;;4984276;28;20482;-93
2023/02/05 03:59:52;;;;;;;73.07;34.10;;;9.10;1.00;;;;;;4985097;28;20187;-89
2023/02/05 04:02:18;;;;;;;80.77;37.07;;;9.10;1.00;;;;;;4971230;28;20440;-89
2023/02/05 04:04:46;;;;;;;69.83;33.80;;;9.00;1.00;;;;;;4970497;28;20458;-90
2023/02/05 04:07:12;;;;;;;73.53;34.47;;;9.00;1.00;;;;;;4970541;28;20530;-90
2023/02/05 04:09:38;;;;;;;66.37;30.90;;;9.00;1.00;;;;;;4970958;28;20539;-88
2023/02/05 04:12:13;;;;;;;72.97;35.77;;;9.00;1.00;;;;;;4969651;28;20188;-89
2023/02/05 04:14:38;;;;;;;81.57;34.07;;;9.00;1.00;;;;;;4968643;28;20649;-89
2023/02/05 04:17:07;;;;;;;77.33;33.00;;;8.90;1.00;;;;;;4969514;28;20865;-88
2023/02/05 04:19:33;;;;;;;75.43;33.50;;;8.90;1.00;;;;;;4968163;28;20177;-92
2023/02/05 04:22:02;;;;;;;65.00;31.70;;;8.80;1.00;;;;;;4969669;28;20531;-88
2023/02/05 04:24:27;;;;;;;68.60;32.53;;;8.90;1.00;;;;;;4973579;28;20463;-89
2023/02/05 04:26:53;;;;;;;76.83;34.93;;;8.80;1.00;;;;;;4973214;28;20242;-88
2023/02/05 04:29:19;;;;;;;66.60;33.37;;;8.90;1.00;;;;;;4973723;28;20180;-88
2023/02/05 04:31:48;;;;;;;60.10;29.87;;;8.90;1.00;;;;;;4973460;28;20874;-89
2023/02/05 04:34:13;;;;;;;68.33;32.43;;;8.90;1.00;;;;;;4973278;28;20227;-91
2023/02/05 04:36:47;;;;;;;69.53;31.63;;;8.90;1.00;;;;;;4974127;28;20739;-89
2023/02/05 04:39:12;;;;;;;68.70;31.43;;;8.90;1.00;;;;;;4972198;28;20187;-89
2023/02/05 04:41:38;;;;;;;66.10;32.30;;;8.90;1.00;;;;;;4973799;28;20432;-89
2023/02/05 04:44:05;;;;;;;65.07;33.27;;;8.90;1.00;;;;;;4972440;28;20574;-87
2023/02/05 04:46:31;;;;;;;65.07;36.67;;;8.90;1.00;;;;;;4971944;28;20188;-89
2023/02/05 04:48:57;;;;;;;67.80;33.47;;;8.90;1.00;;;;;;4979619;28;20465;-90
2023/02/05 04:51:33;;;;;;;68.30;34.40;;;8.90;1.00;;;;;;4977778;28;20670;-89
2023/02/05 04:53:59;;;;;;;68.37;32.70;;;8.90;1.00;;;;;;4972591;28;20212;-89
2023/02/05 04:56:27;;;;;;;63.37;33.70;;;8.90;1.00;;;;;;4969966;28;20985;-89
2023/02/05 04:58:53;;;;;;;65.63;33.20;;;8.90;1.00;;;;;;4972813;28;20275;-89
2023/02/05 05:01:31;;;;;;;64.80;34.13;;;8.90;1.00;;;;;;4973778;28;20830;-89
2023/02/05 05:03:59;;;;;;;53.60;32.37;;;8.90;1.00;;;;;;4970371;28;20279;-89
2023/02/05 05:06:25;;;;;;;57.50;32.00;;;8.90;1.00;;;;;;4972128;28;20439;-88
2023/02/05 05:08:53;;;;;;;60.03;30.40;;;8.90;1.00;;;;;;4974023;28;20215;-90
2023/02/05 05:11:19;;;;;;;62.93;32.37;;;8.80;1.00;;;;;;4972944;28;20184;-88
2023/02/05 05:13:46;;;;;;;58.27;30.90;;;8.80;1.00;;;;;;4972569;28;20467;-89
2023/02/05 05:16:17;;;;;;;61.72;31.90;;;8.80;1.00;;;;;;4972906;28;20605;-88
2023/02/05 05:18:48;;;;;;;56.20;30.90;;;8.80;1.00;;;;;;4972401;28;20230;-89
2023/02/05 05:21:13;;;;;;;64.57;34.13;;;8.80;1.00;;;;;;4970753;28;20804;-89
2023/02/05 05:23:45;;;;;;;53.30;30.17;;;8.80;1.00;;;;;;4975786;28;20466;-90
2023/02/05 05:26:11;;;;;;;58.07;29.40;;;8.80;1.00;;;;;;4972483;28;20735;-89
2023/02/05 05:28:37;;;;;;;54.17;29.87;;;8.70;1.00;;;;;;4972638;28;20457;-89
2023/02/05 05:31:09;;;;;;;66.13;31.27;;;8.70;1.00;;;;;;4969273;28;20444;-89
2023/02/05 05:33:35;;;;;;;64.80;29.88;;;8.70;1.00;;;;;;4970399;28;20490;-89
2023/02/05 05:36:01;;;;;;;55.37;28.33;;;8.70;1.00;;;;;;4970362;28;20212;-89
2023/02/05 05:38:27;;;;;;;57.35;27.88;;;8.70;1.00;;;;;;4974466;28;20987;-89
2023/02/05 05:43:47;;;;;;;54.07;26.63;;;8.70;1.00;;;;;;4971373;28;20203;-89
2023/02/05 05:46:21;;;;;;;45.97;26.50;;;8.70;1.00;;;;;;4973153;28;20458;-90
2023/02/05 05:48:52;;;;;;;46.23;24.80;;;8.70;1.00;;;;;;4971634;28;20563;-91
2023/02/05 05:51:19;;;;;;;45.33;23.90;;;8.70;1.00;;;;;;4971970;28;20448;-88
2023/02/05 05:53:45;;;;;;;49.23;24.80;;;8.60;1.00;;;;;;4971328;28;20473;-89
2023/02/05 05:56:13;;;;;;;48.70;24.73;;;8.60;1.00;;;;;;4971657;28;20467;-88
2023/02/05 05:58:41;;;;;;;42.83;23.55;;;8.60;1.00;;;;;;4966103;28;20188;-88
2023/02/05 06:01:08;;;;;;;47.77;25.50;;;8.60;1.00;;;;;;4970732;28;20276;-88
2023/02/05 06:03:34;;;;;;;52.22;26.92;;;8.60;1.00;;;;;;4971510;28;20470;-90
2023/02/05 06:06:02;;;;;;;41.95;23.80;;;8.60;1.00;;;;;;4972316;28;20199;-89
2023/02/05 06:08:28;;;;;;;48.23;25.40;;;8.60;1.00;;;;;;4971166;28;20212;-89
2023/02/05 06:10:53;;;;;;;46.73;25.67;;;8.60;1.00;;;;;;4971153;28;20482;-89
2023/02/05 06:13:26;;;;;;;49.90;25.17;;;8.60;1.00;;;;;;4968547;28;20204;-89
2023/02/05 06:15:55;;;;;;;40.80;23.30;;;8.60;1.00;;;;;;4967475;28;20422;-88
2023/02/05 06:18:23;;;;;;;52.00;24.80;;;8.60;1.00;;;;;;4970807;28;20439;-90
2023/02/05 06:20:49;;;;;;;41.30;23.90;;;8.60;1.00;;;;;;4971858;28;20439;-89
2023/02/05 06:23:18;;;;;;;35.17;23.27;;;8.50;1.00;;;;;;4972046;28;20439;-89
2023/02/05 06:25:46;;;;;;;43.80;25.30;;;8.50;1.00;;;;;;4971999;28;20470;-88
2023/02/05 06:28:12;;;;;;;41.90;23.38;;;8.50;1.00;;;;;;4970524;28;20509;-89
2023/02/05 06:30:40;;;;;;;40.87;22.57;;;8.50;1.00;;;;;;4972662;28;20742;-89
2023/02/05 06:33:12;;;;;;;41.90;24.67;;;8.50;1.00;;;;;;4972388;28;20191;-89
2023/02/05 06:35:43;;;;;;;38.77;21.87;;;8.50;1.00;;;;;;4962086;28;20610;-89
2023/02/05 06:38:14;;;;;;;40.97;23.40;;;8.50;1.00;;;;;;4970846;28;20435;-89
2023/02/05 06:40:43;;;;;;;36.40;22.50;;;8.50;1.00;;;;;;4970356;28;20836;-89
2023/02/05 06:43:11;;;;;;;35.47;22.75;;;8.50;1.00;;;;;;4970656;28;20296;-90
2023/02/05 06:45:37;;;;;;;40.95;21.58;;;8.50;1.00;;;;;;4968091;28;20208;-89
2023/02/05 06:48:03;;;;;;;42.00;22.03;;;8.50;1.00;;;;;;4969816;28;20199;-89
2023/02/05 06:50:28;;;;;;;36.65;23.85;;;8.50;1.00;;;;;;4972029;28;20202;-87
2023/02/05 06:52:57;;;;;;;35.37;21.57;;;8.50;1.00;;;;;;4970560;28;20184;-88
2023/02/05 06:55:23;;;;;;;38.00;24.00;;;8.50;1.00;;;;;;4969223;28;20577;-89
2023/02/05 06:57:48;;;;;;;46.13;25.63;;;8.50;1.00;;;;;;4970698;28;20514;-89
2023/02/05 07:00:15;;;;;;;42.27;24.50;;;8.50;1.00;;;;;;4973233;28;20787;-89
2023/02/05 07:02:44;;;;;;;39.17;22.40;;;8.50;1.00;;;;;;4971105;28;20412;-89
2023/02/05 07:05:09;;;;;;;37.27;25.23;;;8.50;1.00;;;;;;4976581;28;20447;-89
2023/02/05 07:07:35;;;;;;;40.57;24.70;;;8.50;1.00;;;;;;4979679;28;20489;-89
2023/02/05 07:10:01;;;;;;;40.93;24.70;;;8.60;1.00;;;;;;4970371;28;20184;-88
2023/02/05 07:12:29;;;;;;;40.17;22.93;;;8.70;1.00;;;;;;4972779;28;20183;-89
2023/02/05 07:15:00;;;;;;;40.87;24.73;;;8.70;1.00;;;;;;4971574;28;20243;-89
2023/02/05 07:17:28;;;;;;;41.38;25.42;;;8.70;1.00;;;;;;4971574;28;20471;-88
2023/02/05 07:19:54;;;;;;;39.60;25.47;;;8.70;1.00;;;;;;4967323;28;20664;-89
2023/02/05 07:22:20;;;;;;;39.60;24.63;;;8.60;1.00;;;;;;4972363;28;20519;-89
2023/02/05 07:24:45;;;;;;;40.97;24.43;;;8.60;1.00;;;;;;4971862;28;20205;-89
2023/02/05 07:27:27;;;;;;;49.67;27.10;;;8.60;1.00;;;;;;4964327;28;20220;-86
2023/02/05 07:29:59;;;;;;;43.15;25.40;;;8.50;1.00;;;;;;4954954;28;20224;-88
2023/02/05 07:32:24;;;;;;;45.08;25.15;;;8.50;1.00;;;;;;4970970;28;20287;-88
2023/02/05 07:34:52;;;;;;;43.33;24.90;;;8.50;1.00;;;;;;4971781;28;20384;-89
2023/02/05 07:37:18;;;;;;;43.17;26.40;;;8.50;1.00;;;;;;4973698;28;20196;-90
2023/02/05 07:39:57;;;;;;;46.47;25.53;;;8.50;1.00;;;;;;4971727;28;20440;-89
2023/02/05 07:42:58;;;;;;;47.03;25.67;;;8.50;1.00;;;;;;4949349;28;20193;-88
2023/02/05 07:45:24;;;;;;;40.70;26.20;;;8.50;1.00;;;;;;4957139;28;20298;-89
2023/02/05 07:47:50;;;;;;;40.93;24.57;;;8.50;1.00;;;;;;4970755;28;20514;-89
2023/02/05 07:50:16;;;;;;;40.17;25.30;;;8.50;1.00;;;;;;4971629;28;20177;-89
2023/02/05 07:52:42;;;;;;;38.70;24.53;;;8.40;1.00;;;;;;4971600;28;20223;-89
2023/02/05 07:55:16;;;;;;;40.07;25.70;;;8.40;1.00;;;;;;4970782;28;21700;-89
2023/02/05 07:57:42;;;;;;;38.10;21.80;;;8.40;1.00;;;;;;4970672;28;20235;-89
2023/02/05 08:00:08;;;;;;;38.50;24.33;;;8.40;1.00;;;;;;4969690;28;20447;-89
2023/02/05 08:02:34;;;;;;;40.50;23.80;;;8.30;1.00;;;;;;4970759;28;20196;-89
2023/02/05 08:04:59;;;;;;;44.60;24.93;;;8.20;1.00;;;;;;4969382;28;20817;-90
2023/02/05 08:07:26;;;;;;;40.38;23.88;;;8.20;1.00;;;;;;4969042;28;20227;-90
2023/02/05 08:09:51;;;;;;;39.70;23.27;;;8.10;1.00;;;;;;4977622;28;20586;-89
2023/02/05 08:12:17;;;;;;;29.50;18.17;;;8.10;1.00;;;;;;4969936;28;20185;-89
2023/02/05 08:14:43;;;;;;;28.23;19.23;;;8.10;1.00;;;;;;4971698;28;20671;-90
2023/02/05 08:17:23;;;;;;;28.60;17.70;;;8.10;1.00;;;;;;4971290;28;20206;-88
2023/02/05 08:20:05;;;;;;;26.02;16.60;;;8.00;1.00;;;;;;4978173;28;20192;-88
2023/02/05 08:22:36;;;;;;;17.85;10.75;;;8.00;1.00;;;;;;4971519;28;20180;-90
2023/02/05 08:25:06;;;;;;;15.40;9.23;;;8.00;1.00;;;;;;4969600;28;20204;-89
2023/02/05 08:27:36;;;;;;;12.15;7.00;;;8.00;1.00;;;;;;4984583;28;20194;-89
2023/02/05 08:30:21;;;;;;;18.60;6.65;;;8.00;1.00;;;;;;4968344;28;20200;-89
2023/02/05 08:33:12;;;;;;;6.22;4.38;;;8.00;1.00;;;;;;4972357;28;20181;-88
2023/02/05 08:35:54;;;;;;;5.78;3.30;;;8.10;1.00;;;;;;4969420;28;20204;-89
2023/02/05 08:38:25;;;;;;;2.88;1.70;;;8.20;1.00;;;;;;4972047;28;20186;-89
2023/02/05 08:41:02;;;;;;;7.40;1.95;;;8.30;1.00;;;;;;4976196;28;20188;-89
2023/02/05 08:43:27;;;;;;;3.43;1.40;;;8.30;99.90;;;;;;4970632;28;20203;-90
2023/02/05 08:45:53;;;;;;;6.50;2.20;;;8.40;99.90;;;;;;4978715;28;20440;-87
2023/02/05 08:51:32;;;;;;;3.40;1.20;;;8.60;99.90;;;;;;4967241;28;20214;-89
2023/02/05 08:53:58;;;;;;;3.83;1.40;;;8.80;1.00;;;;;;4971682;28;20974;-90
2023/02/05 08:56:24;;;;;;;5.97;2.03;;;8.90;1.00;;;;;;4965587;28;20480;-89
2023/02/05 08:58:52;;;;;;;4.30;1.93;;;9.00;99.90;;;;;;4972342;28;20435;-90
2023/02/05 09:01:20;;;;;;;5.00;2.37;;;9.00;99.90;;;;;;4970011;28;20192;-89
2023/02/05 09:03:46;;;;;;;2.07;1.03;;;9.10;1.00;;;;;;4971268;28;20828;-90
2023/02/05 09:06:14;;;;;;;3.97;1.20;;;9.20;99.90;;;;;;4973021;28;20499;-91
2023/02/05 09:08:43;;;;;;;5.20;1.30;;;9.30;99.90;;;;;;4971787;28;20764;-90
2023/02/05 09:11:08;;;;;;;6.77;2.30;;;9.30;99.90;;;;;;4975118;28;20443;-90
2023/02/05 09:13:34;;;;;;;4.97;2.20;;;9.30;1.00;;;;;;4975269;28;20450;-90
2023/02/05 09:16:00;;;;;;;4.13;1.40;;;9.30;1.00;;;;;;4975105;28;20763;-90
2023/02/05 09:18:29;;;;;;;4.93;1.50;;;9.30;1.00;;;;;;4974794;28;20427;-90
2023/02/05 09:20:57;;;;;;;5.87;2.13;;;9.40;1.00;;;;;;4976746;28;20531;-90
2023/02/05 09:23:23;;;;;;;9.97;2.10;;;9.50;1.00;;;;;;4977022;28;20435;-89
2023/02/05 09:25:49;;;;;;;3.80;2.30;;;9.40;1.00;;;;;;4976199;28;20443;-89
2023/02/05 09:28:15;;;;;;;8.70;2.67;;;9.30;1.00;;;;;;4976551;28;20668;-88
2023/02/05 09:30:43;;;;;;;4.80;1.90;;;9.20;99.90;;;;;;4976281;28;20195;-88
2023/02/05 09:33:10;;;;;;;10.90;2.97;;;9.10;99.90;;;;;;4975970;28;20919;-89
2023/02/05 09:35:35;;;;;;;5.93;2.10;;;9.00;1.00;;;;;;4972968;28;20495;-90
2023/02/05 09:38:02;;;;;;;7.73;1.70;;;9.00;1.00;;;;;;4987488;28;20982;-90
2023/02/05 09:40:40;;;;;;;3.85;1.30;;;8.90;99.90;;;;;;4979422;28;20187;-89
2023/02/05 09:43:38;;;;;;;8.77;1.40;;;8.70;99.90;;;;;;4975697;28;20176;-89
2023/02/05 09:46:09;;;;;;;6.15;1.80;;;8.60;1.00;;;;;;4975356;28;20486;-90
2023/02/05 09:48:53;;;;;;;4.93;1.10;;;8.50;1.00;;;;;;4976050;28;20176;-89
2023/02/05 09:51:59;;;;;;;8.60;1.90;;;8.50;99.90;;;;;;4974804;28;20522;-90
2023/02/05 09:54:32;;;;;;;7.47;1.93;;;8.60;99.90;;;;;;4958090;28;20455;-90
2023/02/05 09:57:09;;;;;;;4.67;1.90;;;8.70;1.00;;;;;;4956324;28;20464;-90
2023/02/05 09:59:45;;;;;;;7.70;1.73;;;8.80;1.00;;;;;;4980468;28;20450;-89
2023/02/05 10:05:36;;;;;;;8.63;2.03;;;8.60;1.00;;;;;;4969832;28;20432;-90
2023/02/05 10:08:44;;;;;;;9.03;1.77;;;8.70;99.90;;;;;;4973801;28;20461;-91
2023/02/05 10:11:49;;;;;;;8.20;1.93;;;8.80;99.90;;;;;;4984028;28;20451;-91
2023/02/05 10:17:57;;;;;;;5.87;2.10;;;9.00;99.90;;;;;;4974232;28;20469;-90
2023/02/05 10:21:08;;;;;;;4.07;1.40;;;8.80;99.90;;;;;;4973731;28;20431;-90
2023/02/05 10:24:35;;;;;;;10.53;1.90;;;8.70;1.00;;;;;;4973044;28;20940;-91
2023/02/05 10:27:46;;;;;;;6.17;1.50;;;8.60;99.90;;;;;;4916259;29;20466;-90
2023/02/05 10:37:03;;;;;;;10.80;2.50;;;8.50;1.00;;;;;;4917341;29;20457;-89
2023/02/05 10:39:29;;;;;;;6.33;2.40;;;8.50;99.90;;;;;;4887984;29;20192;-90
2023/02/05 10:42:10;;;;;;;10.10;2.00;;;8.50;99.90;;;;;;4968960;28;20435;-90
2023/02/05 10:44:51;;;;;;;10.83;2.70;;;8.50;99.90;;;;;;4977412;28;20466;-90
2023/02/05 10:47:47;;;;;;;9.00;2.30;;;8.60;99.90;;;;;;4974110;28;20450;-90
2023/02/05 10:51:06;;;;;;;9.10;2.13;;;8.60;51.20;;;;;;4973978;28;20436;-91
2023/02/05 10:53:41;;;;;;;18.90;2.58;;;8.70;1.00;;;;;;5004696;28;20786;-90
2023/02/05 10:56:07;;;;;;;10.60;2.53;;;8.70;1.00;;;;;;4973680;28;20219;-90
2023/02/05 10:59:46;;;;;;;;;;;;;;;;;;;;;
2023/02/05 11:02:31;;;;;;;9.63;3.10;;;8.80;1.00;;;;;;4955904;28;20946;-90
2023/02/05 11:05:23;;;;;;;13.50;2.78;;;8.70;95.00;;;;;;4972250;28;20502;-90
2023/02/05 11:08:47;;;;;;;11.80;3.43;;;8.70;1.00;;;;;;4973880;28;20176;-90
2023/02/05 11:11:31;;;;;;;16.77;3.07;;;8.70;50.30;;;;;;4966413;28;20420;-91
2023/02/05 11:14:03;;;;;;;14.50;2.70;;;8.70;84.30;;;;;;4971813;28;20448;-91
2023/02/05 11:16:41;;;;;;;13.50;2.50;;;8.60;1.00;;;;;;4972531;28;20547;-90
2023/02/05 11:19:35;;;;;;;12.73;2.63;;;8.60;19.00;;;;;;4991723;28;20410;-90
2023/02/05 11:22:03;;;;;;;15.40;3.35;;;8.60;1.00;;;;;;4982421;28;20527;-91
2023/02/05 11:24:43;;;;;;;18.80;2.60;;;8.60;1.00;;;;;;4972516;28;20196;-90
2023/02/05 11:27:38;;;;;;;;;;;;;;;;;;;;;
2023/02/05 11:30:31;;;;;;;14.30;3.20;;;8.70;1.00;;;;;;4974356;28;20419;-90
2023/02/05 11:36:02;;;;;;;14.70;2.90;;;8.60;99.90;;;;;;4977671;28;20538;-90
2023/02/05 11:38:58;;;;;;;12.57;3.13;;;8.60;99.90;;;;;;4973457;28;20589;-90
2023/02/05 11:41:47;;;;;;;14.87;2.70;;;8.60;1.00;;;;;;4971999;28;20432;-90
2023/02/05 11:44:52;;;;;;;28.52;4.65;;;8.60;99.90;;;;;;4953474;28;20452;-90
2023/02/05 11:47:47;;;;;;;16.00;3.60;;;8.60;1.00;;;;;;4964356;28;20191;-91
2023/02/05 11:51:21;;;;;;;12.07;3.80;;;8.60;1.00;;;;;;4965820;28;20462;-86
2023/02/05 11:53:55;;;;;;;19.70;3.63;;;8.70;99.90;;;;;;4913425;29;20522;-89
2023/02/05 11:56:26;;;;;;;17.43;4.27;;;8.70;1.00;;;;;;4908540;29;20467;-91
2023/02/05 11:59:38;;;;;;;13.80;4.33;;;8.80;99.90;;;;;;4912977;29;20457;-90
2023/02/05 12:02:41;;;;;;;20.50;3.70;;;9.00;99.90;;;;;;4947486;28;20483;-90
2023/02/05 12:05:39;;;;;;;;;;;;;;;;;;;;;
2023/02/05 12:08:31;;;;;;;13.23;3.73;;;9.30;99.90;;;;;;4971589;28;20805;-91
2023/02/05 12:14:46;;;;;;;16.70;3.40;;;9.40;1.00;;;;;;4955167;28;20553;-91
2023/02/05 12:17:28;;;;;;;16.43;3.10;;;9.40;1.00;;;;;;4953857;28;20452;-88
2023/02/05 12:20:09;;;;;;;12.60;3.20;;;9.50;1.00;;;;;;4955904;28;20410;-90
2023/02/05 12:23:03;;;;;;;14.97;3.43;;;9.60;99.90;;;;;;4969265;28;20677;-89
2023/02/05 12:25:43;;;;;;;19.93;2.97;;;9.60;99.90;;;;;;4968952;28;20451;-87
2023/02/05 12:31:44;;;;;;;11.47;2.60;;;9.50;99.90;;;;;;4969593;28;20443;-88
2023/02/05 12:34:28;;;;;;;14.97;2.90;;;9.40;99.90;;;;;;4972901;28;20457;-89
2023/02/05 12:37:24;;;;;;;13.13;2.73;;;9.40;99.90;;;;;;4970643;28;20556;-89
2023/02/05 12:40:04;;;;;;;17.57;2.90;;;9.40;99.90;;;;;;4971186;28;20416;-89
2023/02/05 12:42:36;;;;;;;10.97;4.63;;;9.40;99.90;;;;;;4955102;28;20539;-90
2023/02/05 12:45:34;;;;;;;17.17;5.03;;;9.50;99.90;;;;;;4967573;23;20593;-90
2023/02/05 12:48:39;;;;;;;19.00;3.70;;;9.60;99.90;;;;;;4947895;29;20437;-90
2023/02/05 12:51:45;;;;;;;14.67;2.67;;;9.70;99.90;;;;;;4929753;29;20469;-90
2023/02/05 12:54:37;;;;;;;;;;;;;;;;;;;;;
2023/02/05 12:57:18;;;;;;;9.90;2.10;;;9.80;1.00;;;;;;4938901;29;20469;-90
2023/02/05 12:59:57;;;;;;;11.83;2.97;;;9.90;1.00;;;;;;4937972;29;20410;-91
2023/02/05 13:06:23;;;;;;;7.77;2.70;;;9.90;1.00;;;;;;4898731;29;20463;-91
2023/02/05 13:09:04;;;;;;;17.70;2.80;;;9.70;1.00;;;;;;4933804;29;20790;-91
2023/02/05 14:29:50;;;;;;;7.50;2.00;;;10.60;99.90;;;;;;4981990;22;20507;-88
2023/02/05 15:56:41;;;;;;;21.70;2.33;;;9.70;99.90;;;;;;5899190;22;20415;-89
2023/02/05 15:59:09;;;;;;;20.13;3.80;;;9.70;99.90;;;;;;4990005;28;20805;-88
2023/02/05 16:01:46;;;;;;;15.67;3.60;;;9.70;99.90;;;;;;4989872;28;20966;-89
2023/02/05 16:04:30;;;;;;;7.53;2.83;;;9.70;99.90;;;;;;4989519;28;20889;-87
2023/02/05 16:06:58;;;;;;;13.70;3.17;;;9.70;99.90;;;;;;5003825;28;20438;-87
2023/02/05 16:09:25;;;;;;;10.50;3.10;;;9.60;99.90;;;;;;4992614;28;20496;-85
2023/02/05 16:12:09;;;;;;;12.40;3.17;;;9.60;99.90;;;;;;4990831;28;20430;-89
2023/02/05 16:14:37;;;;;;;12.60;3.00;;;9.60;99.90;;;;;;4990566;28;20472;-88
2023/02/05 16:17:24;;;;;;;19.33;3.33;;;9.50;99.90;;;;;;5004100;28;20455;-87
2023/02/05 16:19:54;;;;;;;14.07;3.00;;;9.50;99.90;;;;;;4977440;28;20474;-88
2023/02/05 16:22:43;;;;;;;11.10;3.40;;;9.50;99.90;;;;;;4990333;28;20777;-88
2023/02/05 16:26:13;;;;;;;10.83;2.80;;;9.50;99.90;;;;;;4987913;28;20541;-88
2023/02/05 16:29:07;;;;;;;17.00;3.10;;;9.40;99.90;;;;;;4974887;28;20449;-88
2023/02/05 16:31:37;;;;;;;19.60;3.73;;;9.30;99.90;;;;;;4990273;28;20422;-88
2023/02/05 16:34:15;;;;;;;16.10;4.17;;;9.30;99.90;;;;;;4990775;28;20477;-88
2023/02/05 16:36:47;;;;;;;9.63;2.90;;;9.30;99.90;;;;;;4983478;28;20505;-87
2023/02/05 16:39:41;;;;;;;25.83;4.80;;;9.30;99.90;;;;;;4985340;28;20950;-88
2023/02/05 16:42:28;;;;;;;12.57;3.57;;;9.20;99.90;;;;;;4981582;28;20476;-88
2023/02/05 16:48:24;;;;;;;18.47;3.40;;;9.20;99.90;;;;;;4971907;28;20404;-88
2023/02/05 16:50:51;;;;;;;12.02;3.75;;;9.20;99.90;;;;;;4991597;28;20426;-88